Airports Israel Ben Gurion International Airport

Ben Gurion International Airport (LLBG / TLV)

Facts about Ben Gurion International Airport

Name Ben Gurion International Airport
City Tel-aviv
Country Israel
ICAO code LLBG
IATA code TLV
Elevation 41.1480 meters (135 feet)

Weather

METAR

Metar data retrieved Saturday, 20 July 2024 at 00:55 UTC (3 minutes ago)

LLBG 200020Z 16006KT 9999 FEW019 27/24 Q1003 NOSIG

Live traffic

Navigraph Charts (account required)